Time;durP1;ratioP1;P1;durP2;ratioP2;P2;SDS_P1;SDS_P2;PMS_P1;PMS_P2;Temp;Humidity;BMP_temperature;BMP_pressure;BME280_temperature;BME280_humidity;BME280_pressure;Samples;Min_cycle;Max_cycle;Signal;HPM_P1;HPM_P2
2021/11/29 00:01:14;;;;;;;48.60;19.40;;;;;;;13.26;61.73;98878.45;117312;1183;21838;-54
2021/11/29 00:04:02;;;;;;;48.80;18.10;;;;;;;13.27;61.79;98880.71;117300;1185;22958;-70
2021/11/29 00:06:50;;;;;;;53.60;18.60;;;;;;;13.27;61.81;98888.64;117402;1186;21856;-70
2021/11/29 00:09:20;;;;;;;41.70;18.50;;;;;;;13.27;61.76;98886.52;117252;1186;24165;-55
2021/11/29 00:12:09;;;;;;;64.40;23.30;;;;;;;13.28;61.64;98886.48;117275;1185;21945;-54
2021/11/29 00:14:37;;;;;;;66.80;25.70;;;;;;;13.29;61.87;98894.56;117127;1187;21914;-69
2021/11/29 00:17:25;;;;;;;42.70;24.30;;;;;;;13.30;61.81;98899.59;117306;1185;22882;-69
2021/11/29 00:19:53;;;;;;;59.20;26.60;;;;;;;13.32;61.87;98892.11;117307;1179;22725;-55
2021/11/29 00:22:41;;;;;;;45.60;25.50;;;;;;;13.35;61.81;98889.48;117321;1185;21875;-55
2021/11/29 00:25:10;;;;;;;46.60;25.70;;;;;;;13.38;61.76;98887.95;117304;1185;22625;-54
2021/11/29 00:27:58;;;;;;;38.00;24.50;;;;;;;13.40;61.77;98879.94;117289;1185;22973;-62
2021/11/29 00:30:28;;;;;;;37.40;22.70;;;;;;;13.39;61.75;98878.91;117385;1180;23448;-70
2021/11/29 00:33:16;;;;;;;44.10;22.60;;;;;;;13.39;61.68;98867.13;117350;1182;24181;-70
2021/11/29 00:35:54;;;;;;;37.90;20.00;;;;;;;13.37;61.63;98863.86;117315;1182;23539;-56
2021/11/29 00:38:24;;;;;;;37.50;20.50;;;;;;;13.34;61.63;98857.46;117342;1179;23550;-54
2021/11/29 00:40:52;;;;;;;40.20;20.20;;;;;;;13.34;61.72;98845.85;117408;1184;21857;-69
2021/11/29 00:43:21;;;;;;;41.90;20.50;;;;;;;13.34;61.64;98855.72;117438;1182;23218;-55
2021/11/29 00:45:49;;;;;;;36.80;19.90;;;;;;;13.31;61.73;98844.79;117384;1182;23593;-55
2021/11/29 00:48:18;;;;;;;36.90;18.30;;;;;;;13.29;61.72;98840.47;117199;1179;23452;-55
2021/11/29 00:50:46;;;;;;;30.20;17.60;;;;;;;13.29;61.70;98835.55;117297;1185;21864;-69
2021/11/29 00:53:16;;;;;;;29.40;18.10;;;;;;;13.28;61.64;98841.72;117343;1186;22962;-70
2021/11/29 00:55:44;;;;;;;31.20;16.80;;;;;;;13.26;61.77;98848.20;117298;1186;23624;-55
2021/11/29 00:58:13;;;;;;;32.60;17.40;;;;;;;13.24;61.76;98844.02;117334;1183;23494;-54
2021/11/29 01:00:41;;;;;;;32.10;18.00;;;;;;;13.25;61.81;98842.08;117290;1185;23461;-55
2021/11/29 01:03:10;;;;;;;40.00;18.20;;;;;;;13.24;61.87;98833.27;117336;1185;23435;-69
2021/11/29 01:05:38;;;;;;;36.80;17.70;;;;;;;13.23;61.77;98815.35;117293;1185;21841;-53
2021/11/29 01:08:07;;;;;;;38.80;20.10;;;;;;;13.21;61.89;98801.20;117355;1183;23549;-69
2021/11/29 01:10:36;;;;;;;38.50;18.30;;;;;;;13.20;61.70;98793.67;117171;1186;21857;-69
2021/11/29 01:13:04;;;;;;;41.90;19.30;;;;;;;13.19;61.81;98801.48;117253;1181;21864;-55
2021/11/29 01:15:34;;;;;;;37.90;17.80;;;;;;;13.18;61.80;98802.08;117285;1185;23260;-69
2021/11/29 01:18:11;;;;;;;26.80;16.90;;;;;;;13.16;61.89;98799.84;117116;1186;21867;-69
2021/11/29 01:20:49;;;;;;;34.30;18.00;;;;;;;13.16;61.91;98790.02;117259;1185;23451;-68
2021/11/29 01:23:18;;;;;;;38.40;18.90;;;;;;;13.15;61.79;98798.48;117264;1183;22623;-55
2021/11/29 01:25:47;;;;;;;41.50;17.80;;;;;;;13.16;61.91;98790.00;117312;1185;24076;-56
2021/11/29 01:28:15;;;;;;;33.80;16.40;;;;;;;13.17;61.78;98785.04;117308;1185;21869;-69
2021/11/29 01:30:44;;;;;;;34.60;15.90;;;;;;;13.17;61.85;98775.16;117292;1186;23625;-69
2021/11/29 01:33:18;;;;;;;32.00;16.10;;;;;;;13.18;61.88;98766.67;117329;1176;23484;-69
2021/11/29 01:35:47;;;;;;;24.80;14.10;;;;;;;13.17;61.90;98769.34;117250;1185;22931;-68
2021/11/29 01:38:15;;;;;;;33.50;15.10;;;;;;;13.18;62.00;98764.54;117103;1185;23567;-55
2021/11/29 01:40:44;;;;;;;27.00;13.30;;;;;;;13.20;61.85;98754.58;117350;1186;22619;-69
2021/11/29 01:43:18;;;;;;;26.10;12.90;;;;;;;13.23;61.85;98747.73;117360;1182;21848;-69
2021/11/29 01:45:49;;;;;;;27.30;12.10;;;;;;;13.26;61.90;98736.70;117344;1186;22851;-54
2021/11/29 01:48:20;;;;;;;27.30;12.80;;;;;;;13.28;61.87;98738.16;117443;1185;23478;-55
2021/11/29 01:50:51;;;;;;;23.80;11.50;;;;;;;13.29;61.91;98736.20;117331;1186;21857;-54
2021/11/29 01:53:20;;;;;;;18.50;11.40;;;;;;;13.28;61.84;98739.39;117286;1183;23687;-54
2021/11/29 01:55:49;;;;;;;25.40;11.30;;;;;;;13.28;61.82;98737.11;117322;1176;21859;-54
2021/11/29 01:58:20;;;;;;;28.40;11.40;;;;;;;13.26;61.78;98730.16;117265;1183;21859;-54
2021/11/29 02:00:50;;;;;;;21.10;10.40;;;;;;;13.24;61.79;98726.02;117285;1183;21849;-68
2021/11/29 02:03:23;;;;;;;24.60;11.90;;;;;;;13.22;61.87;98723.86;117237;1185;21845;-54
2021/11/29 02:05:53;;;;;;;26.70;11.30;;;;;;;13.20;61.73;98718.46;117384;1183;23448;-54
2021/11/29 02:08:22;;;;;;;21.40;10.40;;;;;;;13.18;61.75;98712.95;117125;1184;22177;-55
2021/11/29 02:10:50;;;;;;;23.90;9.90;;;;;;;13.13;61.71;98719.00;117386;1185;21856;-56
2021/11/29 02:13:19;;;;;;;22.80;9.70;;;;;;;13.07;61.70;98722.42;117337;1185;21846;-69
2021/11/29 02:15:51;;;;;;;22.40;10.00;;;;;;;13.04;61.66;98724.52;117453;1185;21863;-54
2021/11/29 02:18:21;;;;;;;23.70;9.40;;;;;;;13.03;61.65;98724.61;117283;1183;21908;-54
2021/11/29 02:21:14;;;;;;;25.30;8.90;;;;;;;13.02;61.78;98716.22;117475;1181;21870;-60
2021/11/29 02:23:45;;;;;;;20.00;7.90;;;;;;;13.00;61.69;98704.49;117358;1185;22623;-68
2021/11/29 02:26:19;;;;;;;20.90;8.00;;;;;;;12.98;61.72;98692.64;117426;1186;23631;-53
2021/11/29 02:28:51;;;;;;;15.90;8.00;;;;;;;12.94;61.80;98694.41;117434;1186;21857;-68
2021/11/29 02:31:20;;;;;;;19.50;8.40;;;;;;;12.93;61.82;98696.70;117366;1186;21933;-68
2021/11/29 02:33:49;;;;;;;21.70;9.30;;;;;;;12.92;61.87;98698.85;117407;1179;22830;-52
2021/11/29 02:36:17;;;;;;;21.40;7.50;;;;;;;12.92;61.98;98702.57;117310;1185;23486;-54
2021/11/29 02:38:46;;;;;;;23.60;7.90;;;;;;;12.91;61.80;98699.48;117342;1185;21848;-54
2021/11/29 02:41:14;;;;;;;20.40;7.80;;;;;;;12.92;61.97;98687.59;117603;1182;23580;-68
2021/11/29 02:43:42;;;;;;;22.10;7.90;;;;;;;12.95;61.99;98679.38;117449;1176;23534;-68
2021/11/29 02:46:11;;;;;;;21.20;7.70;;;;;;;12.97;62.02;98672.08;117405;1182;23481;-68
2021/11/29 02:48:49;;;;;;;27.90;10.20;;;;;;;12.98;61.86;98662.36;117445;1186;23394;-54
2021/11/29 02:51:26;;;;;;;22.70;9.80;;;;;;;12.98;61.99;98649.67;117319;1185;22802;-68
2021/11/29 02:53:59;;;;;;;18.90;8.20;;;;;;;12.96;62.02;98641.52;117344;1185;21866;-53
2021/11/29 02:56:28;;;;;;;24.90;7.30;;;;;;;12.94;61.99;98630.14;117363;1186;24335;-69
2021/11/29 02:58:57;;;;;;;16.60;7.40;;;;;;;12.93;61.92;98628.95;117312;1185;23477;-54
2021/11/29 03:01:25;;;;;;;20.10;7.40;;;;;;;12.91;62.00;98635.17;117391;1183;22934;-55
2021/11/29 03:03:54;;;;;;;22.50;7.30;;;;;;;12.92;62.04;98636.40;117359;1185;22886;-54
2021/11/29 03:06:23;;;;;;;19.80;8.00;;;;;;;12.89;61.92;98634.94;117458;1182;24164;-54
2021/11/29 03:08:53;;;;;;;15.40;6.90;;;;;;;12.86;62.09;98636.14;117297;1186;21845;-68
2021/11/29 03:11:21;;;;;;;17.40;6.20;;;;;;;12.86;61.95;98632.67;117404;1185;22056;-69
2021/11/29 03:13:49;;;;;;;14.60;6.50;;;;;;;12.83;61.87;98633.33;117425;1180;23448;-53
2021/11/29 03:16:18;;;;;;;24.50;7.70;;;;;;;12.80;61.89;98628.54;117467;1183;23471;-68
2021/11/29 03:18:47;;;;;;;16.70;6.40;;;;;;;12.77;61.92;98620.94;117407;1183;22886;-68
2021/11/29 03:21:17;;;;;;;20.80;6.40;;;;;;;12.74;61.91;98618.27;117364;1185;23631;-54
2021/11/29 03:23:49;;;;;;;19.40;7.50;;;;;;;12.71;62.00;98615.09;117356;1176;21865;-68
2021/11/29 03:26:18;;;;;;;28.80;10.80;;;;;;;12.67;61.88;98610.35;117316;1185;23590;-53
2021/11/29 03:28:49;;;;;;;39.10;12.40;;;;;;;12.63;61.88;98614.73;117301;1185;22943;-68
2021/11/29 03:31:17;;;;;;;;;;;;;;;12.63;61.89;98612.13;117315;1185;21831;-53
2021/11/29 03:33:46;;;;;;;26.50;7.80;;;;;;;12.61;62.03;98604.29;117305;1185;22855;-55
2021/11/29 03:36:15;;;;;;;19.90;6.70;;;;;;;12.63;62.02;98602.10;117351;1186;21857;-53
2021/11/29 03:38:43;;;;;;;15.80;6.60;;;;;;;12.67;61.99;98602.98;117494;1183;23632;-54
2021/11/29 03:41:12;;;;;;;20.50;7.00;;;;;;;12.73;62.09;98610.06;117451;1185;23499;-68
2021/11/29 03:43:40;;;;;;;19.70;7.30;;;;;;;12.78;62.14;98611.20;117382;1185;23452;-53
2021/11/29 03:46:09;;;;;;;28.60;8.90;;;;;;;12.84;62.16;98606.48;117333;1182;23473;-68
2021/11/29 03:48:38;;;;;;;20.00;6.90;;;;;;;12.92;62.11;98601.73;117361;1182;21996;-68
2021/11/29 03:51:07;;;;;;;23.60;8.20;;;;;;;12.97;62.08;98602.91;117354;1183;24156;-67
2021/11/29 03:53:35;;;;;;;26.00;7.30;;;;;;;13.02;62.00;98596.29;117326;1186;23480;-54
2021/11/29 03:56:04;;;;;;;20.80;7.60;;;;;;;13.05;62.10;98588.36;117288;1185;23454;-68
2021/11/29 03:58:33;;;;;;;25.60;7.90;;;;;;;13.08;62.03;98580.50;117443;1186;23475;-67
2021/11/29 04:01:02;;;;;;;22.30;7.60;;;;;;;13.09;62.11;98561.61;117332;1183;21907;-67
2021/11/29 04:03:32;;;;;;;16.30;7.50;;;;;;;13.11;61.92;98562.03;117471;1183;23651;-67
2021/11/29 04:06:00;;;;;;;22.20;7.10;;;;;;;13.12;61.87;98565.34;117387;1185;22864;-66
2021/11/29 04:08:30;;;;;;;18.90;6.80;;;;;;;13.10;61.93;98561.02;117320;1185;23471;-53
2021/11/29 04:10:58;;;;;;;17.70;6.80;;;;;;;13.09;61.77;98560.54;117269;1186;23461;-53
2021/11/29 04:13:28;;;;;;;18.80;7.20;;;;;;;13.05;62.03;98562.14;117341;1182;23549;-68
2021/11/29 04:15:58;;;;;;;25.20;7.20;;;;;;;13.02;62.08;98560.03;117323;1182;23461;-66
2021/11/29 04:18:26;;;;;;;21.40;7.50;;;;;;;12.98;62.07;98557.06;117192;1183;22226;-68
2021/11/29 04:20:56;;;;;;;20.80;7.00;;;;;;;12.95;61.91;98551.22;117384;1185;23646;-60
2021/11/29 04:23:25;;;;;;;17.30;7.30;;;;;;;12.92;61.98;98549.80;117310;1182;22702;-53
2021/11/29 04:25:56;;;;;;;26.10;7.50;;;;;;;12.89;62.00;98544.46;117408;1185;23457;-54
2021/11/29 04:28:25;;;;;;;31.30;9.00;;;;;;;12.87;62.00;98542.48;117329;1183;21855;-54
2021/11/29 04:30:53;;;;;;;24.90;7.80;;;;;;;12.88;61.97;98546.67;117414;1185;21857;-67
2021/11/29 04:33:21;;;;;;;27.30;8.30;;;;;;;12.88;61.91;98541.56;117497;1179;23560;-67
2021/11/29 04:35:49;;;;;;;19.40;6.80;;;;;;;12.90;61.87;98541.78;117379;1183;23477;-53
2021/11/29 04:38:18;;;;;;;30.50;8.80;;;;;;;12.92;62.04;98544.49;117431;1183;23577;-69
2021/11/29 04:40:47;;;;;;;28.10;8.20;;;;;;;12.93;62.02;98532.30;117431;1183;21849;-54
2021/11/29 04:43:15;;;;;;;23.40;8.30;;;;;;;12.95;62.05;98520.40;117300;1185;22922;-68
2021/11/29 04:45:44;;;;;;;18.90;7.20;;;;;;;12.98;62.00;98513.95;117419;1184;21857;-53
2021/11/29 04:48:13;;;;;;;18.30;6.70;;;;;;;13.00;62.01;98509.77;117380;1183;21850;-53
2021/11/29 04:50:41;;;;;;;29.10;8.80;;;;;;;13.03;62.05;98502.94;117374;1182;23474;-68
2021/11/29 04:53:10;;;;;;;24.00;8.80;;;;;;;13.04;62.11;98498.45;117351;1182;21995;-53
2021/11/29 04:55:38;;;;;;;27.60;8.80;;;;;;;13.06;62.00;98498.00;117343;1183;22889;-67
2021/11/29 04:58:06;;;;;;;26.40;7.50;;;;;;;13.09;61.99;98495.92;117328;1186;23560;-67
2021/11/29 05:00:35;;;;;;;19.40;7.20;;;;;;;13.13;62.05;98492.91;117109;1182;23906;-53
2021/11/29 05:03:03;;;;;;;29.20;9.10;;;;;;;13.17;61.98;98490.58;117364;1185;23500;-53
2021/11/29 05:05:32;;;;;;;24.50;8.50;;;;;;;13.20;62.04;98487.58;117395;1179;23570;-56
2021/11/29 05:08:20;;;;;;;22.10;8.30;;;;;;;13.23;62.03;98478.47;117234;1185;22641;-52
2021/11/29 05:10:48;;;;;;;26.90;8.20;;;;;;;13.25;62.09;98469.35;117429;1185;21941;-53
2021/11/29 05:13:18;;;;;;;26.90;8.70;;;;;;;13.27;61.99;98468.56;117335;1185;24303;-51
2021/11/29 05:15:47;;;;;;;19.20;7.90;;;;;;;13.28;62.10;98469.36;117351;1185;21891;-66
2021/11/29 05:18:15;;;;;;;23.30;8.60;;;;;;;13.31;61.98;98469.94;117387;1176;22921;-53
2021/11/29 05:20:44;;;;;;;24.30;8.40;;;;;;;13.33;62.03;98467.36;117320;1182;23582;-53
2021/11/29 05:23:12;;;;;;;20.10;7.60;;;;;;;13.38;62.13;98468.85;117338;1183;24171;-52
2021/11/29 05:25:41;;;;;;;23.70;8.00;;;;;;;13.42;62.12;98461.27;117414;1183;21848;-66
2021/11/29 05:28:09;;;;;;;27.30;8.90;;;;;;;13.45;62.10;98458.45;117298;1183;21847;-67
2021/11/29 05:30:38;;;;;;;20.60;7.50;;;;;;;13.53;62.09;98460.85;117290;1185;23452;-52
2021/11/29 05:33:06;;;;;;;20.50;7.90;;;;;;;13.58;62.11;98467.27;117347;1183;23471;-54
2021/11/29 05:35:36;;;;;;;24.50;8.30;;;;;;;13.59;62.22;98474.96;117328;1186;23455;-53
2021/11/29 05:38:04;;;;;;;20.90;7.00;;;;;;;13.66;62.15;98482.66;117319;1185;21895;-54
2021/11/29 05:40:33;;;;;;;22.50;7.50;;;;;;;13.72;62.09;98468.29;117320;1183;22316;-51
2021/11/29 05:43:01;;;;;;;23.40;8.80;;;;;;;13.76;62.08;98462.77;117381;1183;21849;-53
2021/11/29 05:45:33;;;;;;;23.80;8.10;;;;;;;13.80;62.07;98456.14;117507;1182;23454;-54
2021/11/29 05:48:03;;;;;;;22.80;7.40;;;;;;;13.82;62.00;98446.89;117410;1183;23377;-53
2021/11/29 05:50:33;;;;;;;25.10;7.80;;;;;;;13.80;62.22;98446.68;117443;1185;21910;-53
2021/11/29 05:53:04;;;;;;;26.80;7.60;;;;;;;13.84;62.33;98439.91;117367;1183;23545;-66
2021/11/29 05:55:33;;;;;;;17.60;7.60;;;;;;;13.91;62.20;98446.73;118272;1185;22641;-56
2021/11/29 05:58:01;;;;;;;26.80;7.80;;;;;;;13.96;62.31;98452.45;117281;1182;22714;-54
2021/11/29 06:00:30;;;;;;;24.10;7.10;;;;;;;14.03;62.25;98452.10;117343;1186;23448;-66
2021/11/29 06:02:59;;;;;;;29.50;7.50;;;;;;;14.13;62.29;98443.41;117425;1185;23461;-66
2021/11/29 06:05:29;;;;;;;34.80;8.40;;;;;;;14.20;62.27;98441.20;117424;1186;21864;-67
2021/11/29 06:07:57;;;;;;;27.50;8.40;;;;;;;14.27;62.24;98440.13;117345;1186;21872;-54
2021/11/29 06:10:26;;;;;;;30.60;9.60;;;;;;;14.33;62.29;98430.95;117369;1185;24159;-67
2021/11/29 06:12:55;;;;;;;23.80;8.30;;;;;;;14.39;62.17;98425.27;117388;1182;22934;-64
2021/11/29 06:15:24;;;;;;;26.30;7.30;;;;;;;14.44;62.28;98418.50;117414;1183;22716;-55
2021/11/29 06:17:52;;;;;;;26.30;7.80;;;;;;;14.44;62.32;98414.39;117359;1182;22552;-68
2021/11/29 06:20:21;;;;;;;23.30;7.40;;;;;;;14.46;62.32;98414.83;117318;1185;21865;-54
2021/11/29 06:22:51;;;;;;;24.10;7.30;;;;;;;14.50;62.44;98407.54;117487;1185;22655;-54
2021/11/29 06:25:20;;;;;;;24.20;6.90;;;;;;;14.52;62.40;98401.27;117380;1185;22648;-54
2021/11/29 06:27:51;;;;;;;22.60;7.50;;;;;;;14.53;62.46;98393.43;117430;1183;21890;-67
2021/11/29 06:30:19;;;;;;;26.00;7.60;;;;;;;14.54;62.40;98390.16;117442;1176;21863;-67
2021/11/29 06:32:48;;;;;;;28.90;8.20;;;;;;;14.57;62.37;98392.13;117438;1185;23451;-54
2021/11/29 06:35:17;;;;;;;25.20;8.10;;;;;;;14.57;62.30;98384.36;117333;1186;23138;-55
2021/11/29 06:37:48;;;;;;;24.60;8.30;;;;;;;14.58;62.41;98378.65;117372;1185;22030;-67
2021/11/29 06:40:16;;;;;;;23.70;8.60;;;;;;;14.57;62.47;98379.62;117344;1186;22081;-55
2021/11/29 06:42:45;;;;;;;30.50;9.00;;;;;;;14.55;62.35;98373.51;117375;1176;23910;-66
2021/11/29 06:45:19;;;;;;;31.40;8.80;;;;;;;14.60;62.34;98366.86;117295;1182;23590;-66
2021/11/29 06:47:48;;;;;;;28.50;9.00;;;;;;;14.61;62.35;98362.06;117346;1186;23525;-65
2021/11/29 06:50:17;;;;;;;21.00;7.40;;;;;;;14.62;62.32;98361.66;117419;1176;21862;-65
2021/11/29 06:52:45;;;;;;;26.10;9.30;;;;;;;14.62;62.41;98355.65;117348;1186;22942;-52
2021/11/29 06:55:18;;;;;;;27.10;7.90;;;;;;;14.62;62.45;98352.27;117260;1183;23554;-66
2021/11/29 06:57:48;;;;;;;22.70;7.40;;;;;;;14.64;62.47;98346.88;117268;1188;21860;-53
2021/11/29 07:00:24;;;;;;;24.90;7.10;;;;;;;14.66;62.49;98336.30;117464;1185;22928;-66
2021/11/29 07:02:52;;;;;;;26.60;8.30;;;;;;;14.69;62.50;98335.98;117379;1176;21854;-65
2021/11/29 07:05:21;;;;;;;29.60;7.70;;;;;;;14.72;62.53;98333.88;119469;1182;22053;-55
2021/11/29 07:07:50;;;;;;;21.20;6.80;;;;;;;14.76;62.56;98324.63;117397;1182;23139;-54
2021/11/29 07:10:20;;;;;;;21.90;7.40;;;;;;;14.81;62.50;98317.05;117242;1185;23461;-54
2021/11/29 07:12:55;;;;;;;20.40;7.60;;;;;;;14.86;62.57;98314.64;117299;1176;23461;-67
2021/11/29 07:15:24;;;;;;;22.80;7.30;;;;;;;14.90;62.58;98311.08;117273;1182;22442;-54
2021/11/29 07:17:53;;;;;;;32.20;7.40;;;;;;;14.92;62.59;98305.08;117386;1186;21858;-55
2021/11/29 07:20:21;;;;;;;29.90;9.10;;;;;;;14.96;62.69;98293.20;117154;1182;23082;-64
2021/11/29 07:22:50;;;;;;;34.10;8.60;;;;;;;14.98;62.65;98285.84;117363;1184;21869;-63
2021/11/29 07:25:18;;;;;;;32.20;8.30;;;;;;;15.01;62.57;98277.67;117312;1183;21867;-63
2021/11/29 07:27:46;;;;;;;28.00;7.70;;;;;;;15.03;62.52;98266.23;117420;1176;23910;-62
2021/11/29 07:30:16;;;;;;;26.70;8.40;;;;;;;15.11;62.63;98267.18;117413;1185;21860;-55
2021/11/29 07:32:45;;;;;;;27.40;8.10;;;;;;;15.13;62.56;98269.30;117346;1185;21899;-55
2021/11/29 07:35:14;;;;;;;26.20;8.10;;;;;;;15.16;62.61;98264.53;117415;1180;23510;-55
2021/11/29 07:37:42;;;;;;;25.10;8.00;;;;;;;15.19;62.51;98258.02;117365;1186;21885;-56
2021/11/29 07:40:11;;;;;;;31.60;7.60;;;;;;;15.20;62.52;98255.27;117270;1183;22523;-63
2021/11/29 07:42:40;;;;;;;29.70;8.10;;;;;;;15.23;62.32;98254.23;117350;1176;21860;-62
2021/11/29 07:45:12;;;;;;;30.90;9.00;;;;;;;15.19;62.51;98250.45;117470;1180;22837;-62
2021/11/29 07:47:43;;;;;;;24.10;8.70;;;;;;;15.17;62.49;98254.95;117379;1185;23478;-65
2021/11/29 07:50:15;;;;;;;27.50;8.50;;;;;;;15.22;62.35;98261.33;117427;1180;21854;-64
2021/11/29 07:52:44;;;;;;;25.30;8.10;;;;;;;15.20;62.38;98257.27;117312;1185;21848;-56
2021/11/29 07:55:15;;;;;;;25.00;7.90;;;;;;;15.18;62.26;98246.39;117415;1185;22966;-55
2021/11/29 07:57:43;;;;;;;;;;;;;;;15.17;62.29;98237.11;117333;1184;22850;-66
2021/11/29 08:00:19;;;;;;;30.10;9.10;;;;;;;15.16;62.28;98231.85;117333;1183;21970;-56
2021/11/29 08:02:51;;;;;;;29.30;8.70;;;;;;;15.14;62.37;98225.61;117352;1186;21863;-66
2021/11/29 08:05:21;;;;;;;34.50;9.90;;;;;;;15.16;62.43;98224.78;117301;1184;22066;-65
2021/11/29 08:07:50;;;;;;;25.80;7.70;;;;;;;15.18;62.43;98225.39;117410;1183;21880;-56
2021/11/29 08:10:19;;;;;;;27.80;8.50;;;;;;;15.19;62.34;98230.09;117435;1183;22925;-66
2021/11/29 08:12:48;;;;;;;27.90;8.40;;;;;;;15.21;62.47;98219.88;117465;1186;23615;-54
2021/11/29 08:15:17;;;;;;;23.00;8.70;;;;;;;15.24;62.38;98209.09;117437;1185;21880;-54
2021/11/29 08:17:45;;;;;;;26.00;8.10;;;;;;;15.25;62.41;98214.13;117352;1185;22871;-65
2021/11/29 08:20:14;;;;;;;21.10;6.80;;;;;;;15.27;62.45;98197.42;117341;1185;24145;-65
2021/11/29 08:22:42;;;;;;;29.90;9.20;;;;;;;15.28;62.36;98202.59;117479;1176;21855;-55
2021/11/29 08:25:10;;;;;;;36.20;9.30;;;;;;;15.28;62.40;98202.59;117363;1184;23079;-67
2021/11/29 08:27:39;;;;;;;21.50;7.30;;;;;;;15.29;62.48;98198.13;117337;1185;21995;-68
2021/11/29 08:30:09;;;;;;;26.60;8.10;;;;;;;15.29;62.49;98193.00;117144;1182;22934;-68
2021/11/29 08:32:39;;;;;;;22.50;6.90;;;;;;;15.28;62.49;98183.39;117325;1185;22646;-55
2021/11/29 08:35:09;;;;;;;21.60;6.90;;;;;;;15.25;62.40;98176.15;117036;1188;23474;-67
2021/11/29 08:37:39;;;;;;;20.80;7.10;;;;;;;15.21;62.43;98172.88;117535;1185;23638;-54
2021/11/29 08:40:08;;;;;;;29.40;7.90;;;;;;;15.18;62.36;98159.16;117416;1182;22633;-55
2021/11/29 08:42:37;;;;;;;23.10;7.80;;;;;;;15.16;62.45;98152.88;117399;1182;23593;-67
2021/11/29 08:45:06;;;;;;;22.80;7.80;;;;;;;15.88;60.87;98151.95;117381;1182;21849;-67
2021/11/29 08:47:35;;;;;;;25.40;9.00;;;;;;;16.05;60.54;98142.66;117418;1183;21883;-66
2021/11/29 08:50:04;;;;;;;24.40;8.30;;;;;;;16.08;60.22;98146.86;117288;1182;23473;-66
2021/11/29 08:52:53;;;;;;;29.80;9.00;;;;;;;16.09;60.39;98137.75;117262;1185;23458;-65
2021/11/29 08:55:21;;;;;;;27.10;9.70;;;;;;;16.09;60.47;98128.05;117300;1185;23474;-65
2021/11/29 08:57:50;;;;;;;23.10;8.20;;;;;;;16.11;60.43;98130.21;117359;1182;24154;-62
2021/11/29 09:00:19;;;;;;;23.00;9.20;;;;;;;16.13;60.41;98121.73;117410;1185;22032;-65
2021/11/29 09:02:48;;;;;;;29.40;10.30;;;;;;;16.15;60.29;98115.76;117453;1186;23455;-55
2021/11/29 09:05:23;;;;;;;35.00;13.70;;;;;;;16.17;60.26;98112.98;117454;1184;23451;-54
2021/11/29 09:07:52;;;;;;;25.00;9.60;;;;;;;16.20;60.20;98105.69;117302;1179;21856;-64
2021/11/29 09:10:22;;;;;;;30.70;9.90;;;;;;;16.23;60.18;98106.88;117291;1182;22556;-55
2021/11/29 09:12:50;;;;;;;17.50;9.10;;;;;;;16.20;60.26;98107.06;117330;1183;21861;-55
2021/11/29 09:15:19;;;;;;;30.60;9.90;;;;;;;16.29;59.97;98107.02;117297;1182;23509;-63
2021/11/29 09:17:52;;;;;;;23.40;9.40;;;;;;;15.67;61.22;98103.33;117320;1183;21848;-62
2021/11/29 09:20:23;;;;;;;28.90;9.20;;;;;;;15.67;61.13;98086.54;117404;1176;21858;-55
2021/11/29 09:22:52;;;;;;;30.20;9.60;;;;;;;15.14;62.07;98080.79;117449;1183;22894;-54
2021/11/29 09:25:21;;;;;;;23.90;9.40;;;;;;;15.00;62.49;98065.13;117382;1185;21855;-55
2021/11/29 09:27:50;;;;;;;26.60;10.20;;;;;;;15.91;60.67;98046.14;117322;1185;24169;-53
2021/11/29 09:30:19;;;;;;;23.40;8.80;;;;;;;16.21;60.03;98032.52;117804;1182;22912;-54
2021/11/29 09:32:47;;;;;;;32.20;9.60;;;;;;;16.30;59.84;98028.70;118462;1184;21867;-64
2021/11/29 09:35:17;;;;;;;27.50;9.80;;;;;;;16.38;59.63;98017.35;117382;1182;23401;-54
2021/11/29 09:37:47;;;;;;;25.60;9.90;;;;;;;16.41;59.52;98017.45;117429;1179;22722;-54
2021/11/29 09:40:19;;;;;;;28.50;10.40;;;;;;;16.43;59.56;98006.52;117411;1182;22924;-66
2021/11/29 09:42:49;;;;;;;31.20;12.00;;;;;;;16.45;59.51;98000.69;117286;1183;23642;-53
2021/11/29 09:45:23;;;;;;;26.50;10.70;;;;;;;16.48;59.54;97999.70;117338;1183;23075;-54
2021/11/29 09:47:52;;;;;;;31.10;11.60;;;;;;;16.60;59.37;97984.40;117285;1185;24194;-65
2021/11/29 09:50:21;;;;;;;24.80;10.50;;;;;;;16.71;59.14;97969.58;117367;1182;21872;-66
2021/11/29 09:52:49;;;;;;;28.00;10.20;;;;;;;16.59;59.43;97968.86;117329;1185;21946;-66
2021/11/29 09:55:24;;;;;;;26.00;10.50;;;;;;;16.59;59.43;97955.23;117342;1182;21928;-54
2021/11/29 09:57:53;;;;;;;24.10;9.30;;;;;;;16.62;59.38;97951.63;117230;1185;21866;-66
2021/11/29 10:00:27;;;;;;;28.30;11.00;;;;;;;16.64;59.43;97933.57;117443;1176;21849;-67
2021/11/29 10:02:55;;;;;;;30.40;10.70;;;;;;;16.77;59.21;97917.53;118402;1179;21866;-61
2021/11/29 10:05:25;;;;;;;26.40;9.60;;;;;;;16.90;59.01;97911.09;117276;1182;22221;-54
2021/11/29 10:07:53;;;;;;;27.50;9.70;;;;;;;16.76;59.28;97907.52;117233;1179;23520;-54
2021/11/29 10:10:25;;;;;;;30.00;10.70;;;;;;;15.70;61.55;97913.78;117296;1185;21871;-54
2021/11/29 10:13:05;;;;;;;31.40;11.50;;;;;;;15.47;62.14;97898.67;117106;1186;23477;-66
2021/11/29 10:15:34;;;;;;;25.70;10.60;;;;;;;15.38;62.31;97886.59;117130;1182;23917;-55
2021/11/29 10:18:24;;;;;;;25.60;10.10;;;;;;;15.33;62.36;97868.55;117259;1183;21885;-67
2021/11/29 10:21:00;;;;;;;29.50;10.30;;;;;;;15.30;62.54;97852.17;117160;1186;23536;-54
2021/11/29 10:23:35;;;;;;;28.00;10.00;;;;;;;15.31;62.45;97857.95;117178;1188;21901;-67
2021/11/29 10:26:09;;;;;;;34.80;12.60;;;;;;;15.54;62.11;97858.73;117061;1179;21865;-54
2021/11/29 10:28:40;;;;;;;33.00;11.40;;;;;;;15.31;62.50;97854.94;117129;1183;22940;-54
2021/11/29 10:31:25;;;;;;;30.30;10.40;;;;;;;15.27;62.59;97842.11;117171;1182;24233;-54
2021/11/29 10:34:30;;;;;;;25.30;9.60;;;;;;;15.24;62.71;97847.66;117312;1184;22677;-54
2021/11/29 10:37:04;;;;;;;31.20;10.70;;;;;;;15.19;62.71;97874.37;117286;1185;21851;-54
2021/11/29 10:39:44;;;;;;;34.90;11.50;;;;;;;15.15;62.77;97903.01;117254;1182;22064;-54
2021/11/29 10:42:15;;;;;;;36.40;11.00;;;;;;;15.10;62.70;97924.58;117322;1185;21851;-62
2021/11/29 10:44:45;;;;;;;35.80;9.50;;;;;;;15.05;62.62;97921.23;117122;1182;21870;-61
2021/11/29 10:47:16;;;;;;;31.80;10.40;;;;;;;14.98;62.54;97891.35;117249;1185;22654;-63
2021/11/29 10:49:47;;;;;;;28.70;8.80;;;;;;;14.90;62.52;97857.83;117108;1185;21947;-64
2021/11/29 10:52:23;;;;;;;29.40;9.90;;;;;;;14.83;62.64;97839.91;117192;1186;21859;-54
2021/11/29 10:54:52;;;;;;;18.10;7.50;;;;;;;14.78;62.74;97806.37;117225;1183;23606;-64
2021/11/29 10:57:21;;;;;;;25.70;8.40;;;;;;;14.96;62.30;97804.60;117134;1186;22963;-54
2021/11/29 10:59:50;;;;;;;23.80;8.60;;;;;;;14.87;62.43;97841.59;117139;1186;23472;-53
2021/11/29 11:02:21;;;;;;;24.40;9.20;;;;;;;14.75;62.58;97858.48;117360;1184;21877;-65
2021/11/29 11:05:07;;;;;;;23.20;9.10;;;;;;;14.77;62.63;97862.80;117320;1185;24172;-65
2021/11/29 11:07:37;;;;;;;26.50;8.70;;;;;;;14.74;62.73;97861.09;117270;1176;21867;-52
2021/11/29 11:10:15;;;;;;;29.70;9.30;;;;;;;14.72;62.76;97849.16;117419;1185;23691;-65
2021/11/29 11:12:46;;;;;;;27.50;9.30;;;;;;;14.79;62.62;97846.55;117457;1185;22943;-52
2021/11/29 11:15:18;;;;;;;27.50;8.20;;;;;;;14.72;62.74;97838.95;119567;1183;21765;-53
2021/11/29 11:18:03;;;;;;;22.90;7.60;;;;;;;14.74;62.75;97852.74;117530;1186;24162;-53
2021/11/29 11:20:33;;;;;;;27.00;9.70;;;;;;;14.74;62.82;97853.98;117243;1185;21985;-65
2021/11/29 11:23:02;;;;;;;25.70;9.70;;;;;;;14.76;62.90;97828.79;117272;1185;23552;-53
2021/11/29 11:25:33;;;;;;;22.30;8.50;;;;;;;14.78;62.80;97817.36;117124;1182;23645;-53
2021/11/29 11:28:09;;;;;;;25.90;7.80;;;;;;;14.79;62.84;97808.10;117394;1183;22613;-54
2021/11/29 11:30:39;;;;;;;31.30;8.50;;;;;;;14.81;62.89;97803.01;117438;1184;21902;-53
2021/11/29 11:33:15;;;;;;;;;;;;;;;14.83;62.78;97789.06;117434;1176;21831;-64